This is the latest recevied weather packets stored in our database for station/object KE8RXN. If no packets are shown the sender has not sent any weather packets the latest 10 day(s).
| Time | Temp. | Humidity | Pressure | Rain* | Wind** | Luminosity | Snow |
|---|---|---|---|---|---|---|---|
| 1777954265 | 15° C | 77% | 1003.1 hPa | 0 mm | - | 0 W/m² | - |
| 1777953962 | 15° C | 76% | 1003.1 hPa | 0 mm | - | 0 W/m² | - |
| 1777953659 | 15.56° C | 75% | 1003.2 hPa | 0 mm | - | 0 W/m² | - |
| 1777953355 | 15.56° C | 75% | 1003.2 hPa | 0 mm | - | 0 W/m² | - |
| 1777953052 | 16.11° C | 74% | 1003.2 hPa | 0 mm | - | 0 W/m² | - |
| 1777952748 | 16.67° C | 73% | 1003.3 hPa | 0 mm | - | 0 W/m² | - |
| 1777952445 | 16.67° C | 73% | 1003.1 hPa | 0 mm | - | 0 W/m² | - |
| 1777952142 | 16.67° C | 73% | 1003.1 hPa | 0 mm | - | 0 W/m² | - |
| 1777951840 | 16.67° C | 72% | 1003.1 hPa | 0 mm | - | 0 W/m² | - |
| 1777951538 | 17.22° C | 71% | 1003 hPa | 0 mm | - | 0 W/m² | - |
| 1777951234 | 17.22° C | 71% | 1002.6 hPa | 0 mm | - | 0 W/m² | - |
| 1777950932 | 17.22° C | 71% | 1002.1 hPa | 0 mm | - | 0 W/m² | - |
| 1777950628 | 17.22° C | 72% | 1002.1 hPa | 0 mm | - | 0 W/m² | - |
| 1777950325 | 17.22° C | 72% | 1001.9 hPa | 0 mm | - | 0 W/m² | - |
| 1777950021 | 16.67° C | 73% | 1001.9 hPa | 0 mm | - | 0 W/m² | - |
| 1777949717 | 16.67° C | 76% | 1001.6 hPa | 1.78 mm | - | 0 W/m² | - |
| 1777949416 | 17.22° C | 74% | 1001.6 hPa | 1.78 mm | - | 0 W/m² | - |
| 1777949112 | 17.78° C | 69% | 1001.9 hPa | 0 mm | - | 0 W/m² | - |
| 1777948810 | 18.33° C | 66% | 1002.2 hPa | 0 mm | - | 0 W/m² | - |
| 1777948506 | 18.33° C | 65% | 1001.7 hPa | 0 mm | - | 0 W/m² | - |
| 1777948204 | 18.33° C | 64% | 1001.3 hPa | 0 mm | - | 0 W/m² | - |
| 1777947902 | 18.89° C | 64% | 1001.3 hPa | 0 mm | - | 0 W/m² | - |
| 1777947599 | 18.89° C | 64% | 1001.2 hPa | 0 mm | - | 0 W/m² | - |
| 1777947295 | 18.89° C | 63% | 1001.2 hPa | 0 mm | - | 0 W/m² | - |
| 1777946990 | 19.44° C | 63% | 1001.1 hPa | 0 mm | - | 0 W/m² | - |
* Rain latest hour (hover to see other rain measurements)
** Current wind speed in m/s (hover to see current wind gust speed)